Time;durP1;ratioP1;P1;durP2;ratioP2;P2;SDS_P1;SDS_P2;PMS_P1;PMS_P2;Temp;Humidity;BMP_temperature;BMP_pressure;BME280_temperature;BME280_humidity;BME280_pressure;Samples;Min_cycle;Max_cycle;Signal;HPM_P1;HPM_P2
2022/11/17 00:01:36;;;;;;;;;;;13.30;74.40;;;;;;4942708;29;19915;-86
2022/11/17 00:04:02;;;;;;;;;;;13.30;74.40;;;;;;4958825;29;19944;-87
2022/11/17 00:06:27;;;;;;;;;;;13.30;74.40;;;;;;4943316;29;19918;-87
2022/11/17 00:08:53;;;;;;;;;;;13.30;74.40;;;;;;4958092;29;20382;-87
2022/11/17 00:11:19;;;;;;;;;;;13.30;74.40;;;;;;4958088;29;19969;-86
2022/11/17 00:16:29;;;;;;;;;;;13.30;74.40;;;;;;4945129;29;20013;-87
2022/11/17 00:21:39;;;;;;;;;;;13.30;74.50;;;;;;4959422;28;19915;-87
2022/11/17 00:24:05;;;;;;;;;;;13.30;74.50;;;;;;4942288;29;19914;-85
2022/11/17 00:26:32;;;;;;;;;;;13.30;74.50;;;;;;4957568;28;20368;-87
2022/11/17 00:29:05;;;;;;;;;;;13.30;74.50;;;;;;4958080;29;19936;-86
2022/11/17 00:34:23;;;;;;;;;;;13.30;74.50;;;;;;4958196;29;19914;-86
2022/11/17 00:36:50;;;;;;;;;;;13.30;74.50;;;;;;4942179;29;19918;-87
2022/11/17 00:39:17;;;;;;;;;;;13.30;74.50;;;;;;4957940;29;19953;-87
2022/11/17 00:41:43;;;;;;;;;;;13.40;74.60;;;;;;4958047;29;19962;-86
2022/11/17 00:44:08;;;;;;;;;;;13.30;74.50;;;;;;4958603;29;20313;-86
2022/11/17 00:46:36;;;;;;;;;;;13.40;74.60;;;;;;4960477;28;20402;-86
2022/11/17 00:49:01;;;;;;;;;;;13.30;74.50;;;;;;4960749;28;19936;-87
2022/11/17 00:51:27;;;;;;;;;;;13.30;74.50;;;;;;4928554;29;20005;-87
2022/11/17 00:53:53;;;;;;;;;;;13.30;74.60;;;;;;4959022;28;20350;-87
2022/11/17 00:56:18;;;;;;;;;;;13.30;74.50;;;;;;4958939;29;19918;-86
2022/11/17 00:58:44;;;;;;;;;;;13.40;74.60;;;;;;4925239;29;19938;-86
2022/11/17 01:01:10;;;;;;;;;;;13.40;74.60;;;;;;4957524;29;19919;-87
2022/11/17 01:03:36;;;;;;;;;;;13.40;74.60;;;;;;4958816;28;19911;-86
2022/11/17 01:06:05;;;;;;;;;;;13.40;74.60;;;;;;4958359;28;19924;-86
2022/11/17 01:08:31;;;;;;;;;;;13.40;74.60;;;;;;4957063;28;19969;-86
2022/11/17 01:11:03;;;;;;;;;;;13.40;74.60;;;;;;4957359;28;19926;-85
2022/11/17 01:13:28;;;;;;;;;;;13.40;74.70;;;;;;4957311;28;19922;-87
2022/11/17 01:15:54;;;;;;;;;;;13.40;74.60;;;;;;4957207;29;19911;-87
2022/11/17 01:18:20;;;;;;;;;;;13.40;74.60;;;;;;4958141;28;19969;-84
2022/11/17 01:20:45;;;;;;;;;;;13.40;74.70;;;;;;4957250;28;20021;-87
2022/11/17 01:23:11;;;;;;;;;;;13.40;74.70;;;;;;4941308;29;19918;-86
2022/11/17 01:25:37;;;;;;;;;;;13.40;74.70;;;;;;4925015;29;19914;-87
2022/11/17 01:28:02;;;;;;;;;;;13.40;74.70;;;;;;4940561;29;19931;-87
2022/11/17 01:30:28;;;;;;;;;;;13.40;74.70;;;;;;4940981;28;19919;-87
2022/11/17 01:32:54;;;;;;;;;;;13.40;74.70;;;;;;4940935;29;19922;-88
2022/11/17 01:35:19;;;;;;;;;;;13.40;74.70;;;;;;4940868;28;19940;-87
2022/11/17 01:37:45;;;;;;;;;;;13.40;74.70;;;;;;4957457;28;19966;-87
2022/11/17 01:40:12;;;;;;;;;;;13.40;74.70;;;;;;4958333;28;19921;-86
2022/11/17 01:42:37;;;;;;;;;;;13.40;74.70;;;;;;4957439;28;19915;-87
2022/11/17 01:45:15;;;;;;;;;;;13.40;74.70;;;;;;4941378;29;20066;-86
2022/11/17 01:47:47;;;;;;;;;;;13.40;74.80;;;;;;4956644;29;19922;-88
2022/11/17 01:50:23;;;;;;;;;;;13.40;74.80;;;;;;4956649;28;19918;-88
2022/11/17 01:52:50;;;;;;;;;;;13.40;74.80;;;;;;4957221;28;20068;-88
2022/11/17 01:55:18;;;;;;;;;;;13.40;74.80;;;;;;4956296;28;19911;-87
2022/11/17 01:57:46;;;;;;;;;;;13.50;74.90;;;;;;4956449;29;19914;-87
2022/11/17 02:00:12;;;;;;;;;;;13.40;74.80;;;;;;4940254;29;19949;-88
2022/11/17 02:02:38;;;;;;;;;;;13.40;74.80;;;;;;4940691;29;19985;-87
2022/11/17 02:05:04;;;;;;;;;;;13.40;74.80;;;;;;4956551;29;19917;-86
2022/11/17 02:07:33;;;;;;;;;;;13.50;74.90;;;;;;4956296;29;19923;-87
2022/11/17 02:09:59;;;;;;;;;;;13.40;74.90;;;;;;4940124;29;19922;-88
2022/11/17 02:12:26;;;;;;;;;;;13.40;74.90;;;;;;4956014;28;20364;-88
2022/11/17 02:14:52;;;;;;;;;;;13.40;74.90;;;;;;4940080;29;19919;-90
2022/11/17 02:17:18;;;;;;;;;;;13.40;74.90;;;;;;4956324;28;20360;-89
2022/11/17 02:19:48;;;;;;;;;;;13.40;74.90;;;;;;4956245;28;19910;-88
2022/11/17 02:22:13;;;;;;;;;;;13.50;74.90;;;;;;4956394;29;19961;-87
2022/11/17 02:24:42;;;;;;;;;;;13.40;74.90;;;;;;4939988;29;19911;-87
2022/11/17 02:27:17;;;;;;;;;;;13.40;74.90;;;;;;4955815;29;19934;-85
2022/11/17 02:29:49;;;;;;;;;;;13.50;75.00;;;;;;4956571;28;19993;-87
2022/11/17 02:32:18;;;;;;;;;;;13.40;75.00;;;;;;4939761;29;19915;-87
2022/11/17 02:34:43;;;;;;;;;;;13.40;75.00;;;;;;4955575;29;19958;-86
2022/11/17 02:37:32;;;;;;;;;;;13.40;74.90;;;;;;4955814;29;19915;-86
2022/11/17 02:40:01;;;;;;;;;;;13.40;75.00;;;;;;4955619;28;19914;-87
2022/11/17 02:45:25;;;;;;;;;;;13.40;75.00;;;;;;4957643;28;19929;-87
2022/11/17 02:47:53;;;;;;;;;;;13.50;75.00;;;;;;4955941;29;19922;-87
2022/11/17 02:50:19;;;;;;;;;;;13.40;75.00;;;;;;4956057;28;19910;-87
2022/11/17 02:52:45;;;;;;;;;;;13.50;75.70;;;;;;4955517;29;19914;-87
2022/11/17 02:55:11;;;;;;;;;;;13.50;75.00;;;;;;4940331;29;19958;-87
2022/11/17 02:57:40;;;;;;;;;;;13.50;75.00;;;;;;4957320;28;19915;-88
2022/11/17 03:00:07;;;;;;;;;;;13.50;75.00;;;;;;4955879;28;19910;-87
2022/11/17 03:02:35;;;;;;;;;;;13.40;75.00;;;;;;4955502;28;20279;-86
2022/11/17 03:05:24;;;;;;;;;;;13.50;75.00;;;;;;4955736;28;19911;-87
2022/11/17 03:08:13;;;;;;;;;;;13.50;75.10;;;;;;4954789;29;21030;-87
2022/11/17 03:10:57;;;;;;;;;;;13.50;75.10;;;;;;4955681;29;19915;-87
2022/11/17 03:13:42;;;;;;;;;;;13.50;75.10;;;;;;4956329;28;19919;-86
2022/11/17 03:16:11;;;;;;;;;;;13.50;75.10;;;;;;4955608;28;20029;-86
2022/11/17 03:18:44;;;;;;;;;;;13.50;75.10;;;;;;4939764;29;20007;-87
2022/11/17 03:21:10;;;;;;;;;;;13.50;75.10;;;;;;4939982;29;20379;-87
2022/11/17 03:23:39;;;;;;;;;;;13.50;75.10;;;;;;4956185;28;19910;-87
2022/11/17 03:26:08;;;;;;;;;;;13.50;75.10;;;;;;4939394;29;19991;-87
2022/11/17 03:28:35;;;;;;;;;;;13.50;75.10;;;;;;4955499;28;19925;-87
2022/11/17 03:31:01;;;;;;;;;;;13.50;75.10;;;;;;4939023;29;19921;-88
2022/11/17 03:33:27;;;;;;;;;;;13.50;75.10;;;;;;4955889;28;19910;-87
2022/11/17 03:35:57;;;;;;;;;;;13.50;75.10;;;;;;4955193;29;19936;-87
2022/11/17 03:38:25;;;;;;;;;;;13.50;75.10;;;;;;4954900;29;19962;-87
2022/11/17 03:40:54;;;;;;;;;;;13.50;75.10;;;;;;4955002;29;19915;-86
2022/11/17 03:43:20;;;;;;;;;;;13.60;75.10;;;;;;4956017;29;20328;-85
2022/11/17 03:45:50;;;;;;;;;;;13.50;75.10;;;;;;4955338;29;19910;-86
2022/11/17 03:48:32;;;;;;;;;;;13.50;75.10;;;;;;4955698;29;19923;-87
2022/11/17 03:50:58;;;;;;;;;;;13.60;75.10;;;;;;4955108;29;19915;-87
2022/11/17 03:53:24;;;;;;;;;;;13.50;75.10;;;;;;4955999;28;20388;-87
2022/11/17 03:55:52;;;;;;;;;;;13.60;75.10;;;;;;4955522;29;19922;-87
2022/11/17 03:58:20;;;;;;;;;;;13.60;75.20;;;;;;4955077;28;20440;-86
2022/11/17 04:00:48;;;;;;;;;;;13.60;75.20;;;;;;4956809;28;20382;-87
2022/11/17 04:03:13;;;;;;;;;;;13.50;75.10;;;;;;4942657;28;19914;-87
2022/11/17 04:05:39;;;;;;;;;;;13.60;75.20;;;;;;4958802;29;20388;-85
2022/11/17 04:08:05;;;;;;;;;;;13.60;75.10;;;;;;4958784;28;19925;-86
2022/11/17 04:15:54;;;;;;;;;;;13.60;75.10;;;;;;4958436;29;19957;-86
2022/11/17 04:16:05;;;;;;;;;;;13.60;75.10;;;;;;4958483;28;19926;-86
2022/11/17 04:18:31;;;;;;;;;;;13.60;75.10;;;;;;4958280;28;19910;-86
2022/11/17 04:20:56;;;;;;;;;;;13.60;75.10;;;;;;4959129;28;19918;-86
2022/11/17 04:23:23;;;;;;;;;;;13.60;75.10;;;;;;4957807;28;19918;-85
2022/11/17 04:28:37;;;;;;;;;;;13.60;75.10;;;;;;4957865;29;20025;-86
2022/11/17 04:31:03;;;;;;;;;;;13.60;75.10;;;;;;4957770;29;19949;-85
2022/11/17 04:33:29;;;;;;;;;;;13.60;75.10;;;;;;4958106;28;19954;-86
2022/11/17 04:35:55;;;;;;;;;;;13.60;75.10;;;;;;4958135;29;19922;-86
2022/11/17 04:38:21;;;;;;;;;;;13.60;75.10;;;;;;4958026;29;20001;-86
2022/11/17 04:43:31;;;;;;;;;;;13.60;75.20;;;;;;4958659;29;19953;-87
2022/11/17 04:45:58;;;;;;;;;;;13.60;75.20;;;;;;4957892;28;20259;-87
2022/11/17 04:48:24;;;;;;;;;;;13.60;75.20;;;;;;4958824;28;19923;-86
2022/11/17 04:50:52;;;;;;;;;;;13.60;75.20;;;;;;4957705;28;20257;-86
2022/11/17 04:53:17;;;;;;;;;;;13.60;75.20;;;;;;4941729;29;20053;-86
2022/11/17 04:55:43;;;;;;;;;;;13.60;75.20;;;;;;4957424;29;19974;-86
2022/11/17 04:58:09;;;;;;;;;;;13.60;75.20;;;;;;4957815;29;19941;-86
2022/11/17 05:00:34;;;;;;;;;;;13.60;75.20;;;;;;4958074;28;19985;-86
2022/11/17 05:03:00;;;;;;;;;;;13.60;75.20;;;;;;4944200;29;19915;-87
2022/11/17 05:05:26;;;;;;;;;;;13.60;75.20;;;;;;4958626;29;19911;-86
2022/11/17 05:07:51;;;;;;;;;;;13.60;75.20;;;;;;4941216;29;19926;-85
2022/11/17 05:13:20;;;;;;;;;;;13.60;75.20;;;;;;4957999;28;19914;-87
2022/11/17 05:13:21;;;;;;;;;;;13.60;75.20;;;;;;4958613;28;19927;-87
2022/11/17 05:18:38;;;;;;;;;;;13.60;75.20;;;;;;4957092;29;20382;-87
2022/11/17 05:21:04;;;;;;;;;;;13.60;75.20;;;;;;4959058;28;19928;-87
2022/11/17 05:26:14;;;;;;;;;;;13.60;75.20;;;;;;4958294;29;20387;-88
2022/11/17 05:28:40;;;;;;;;;;;13.60;75.20;;;;;;4957105;29;19918;-87
2022/11/17 05:31:05;;;;;;;;;;;13.60;75.20;;;;;;4957733;29;19918;-87
2022/11/17 05:33:31;;;;;;;;;;;13.60;75.30;;;;;;4956554;28;20283;-87
2022/11/17 05:35:57;;;;;;;;;;;13.60;75.20;;;;;;4925881;29;19926;-88
2022/11/17 05:38:22;;;;;;;;;;;13.60;75.30;;;;;;4956759;29;20059;-86
2022/11/17 05:40:48;;;;;;;;;;;13.60;75.30;;;;;;4940584;29;20390;-86
2022/11/17 05:43:13;;;;;;;;;;;13.60;75.20;;;;;;4940737;29;20002;-85
2022/11/17 05:45:39;;;;;;;;;;;13.60;75.20;;;;;;4940190;29;20057;-85
2022/11/17 05:48:05;;;;;;;;;;;13.60;75.30;;;;;;4957436;28;19923;-84
2022/11/17 05:50:31;;;;;;;;;;;13.60;75.30;;;;;;4956576;28;20334;-86
2022/11/17 05:52:59;;;;;;;;;;;13.60;75.20;;;;;;4957146;29;20336;-87
2022/11/17 05:55:25;;;;;;;;;;;13.60;75.30;;;;;;4940643;28;19983;-87
2022/11/17 05:57:52;;;;;;;;;;;13.60;75.30;;;;;;4940432;29;19919;-86
2022/11/17 06:00:17;;;;;;;;;;;13.60;75.30;;;;;;4924853;29;19958;-87
2022/11/17 06:02:46;;;;;;;;;;;13.60;75.30;;;;;;4956268;29;20275;-86
2022/11/17 06:05:11;;;;;;;;;;;13.60;75.30;;;;;;4956100;29;19910;-87
2022/11/17 06:07:37;;;;;;;;;;;13.60;75.30;;;;;;4924591;29;20024;-85
2022/11/17 06:10:03;;;;;;;;;;;13.60;75.30;;;;;;4956306;29;19985;-87
2022/11/17 06:12:29;;;;;;;;;;;13.70;75.30;;;;;;4940039;29;19922;-88
2022/11/17 06:14:54;;;;;;;;;;;13.60;75.30;;;;;;4956472;29;19965;-89
2022/11/17 06:17:24;;;;;;;;;;;13.60;75.30;;;;;;4939822;29;19969;-83
2022/11/17 06:19:53;;;;;;;;;;;13.60;75.30;;;;;;4939939;29;19911;-87
2022/11/17 06:22:19;;;;;;;;;;;13.60;75.30;;;;;;4955947;29;19910;-85
2022/11/17 06:24:45;;;;;;;;;;;13.70;75.30;;;;;;4955893;28;20377;-89
2022/11/17 06:27:12;;;;;;;;;;;13.60;75.30;;;;;;4955731;29;19925;-88
2022/11/17 06:29:38;;;;;;;;;;;13.70;75.30;;;;;;4956921;29;20288;-89
2022/11/17 06:32:03;;;;;;;;;;;13.70;75.30;;;;;;4955876;29;19917;-88
2022/11/17 06:34:31;;;;;;;;;;;13.70;75.30;;;;;;4924243;29;19949;-89
2022/11/17 06:36:57;;;;;;;;;;;13.70;75.30;;;;;;4955709;28;19914;-86
2022/11/17 06:39:22;;;;;;;;;;;13.70;75.30;;;;;;4923751;29;19929;-86
2022/11/17 06:41:48;;;;;;;;;;;13.70;75.30;;;;;;4955900;28;19927;-87
2022/11/17 06:44:14;;;;;;;;;;;13.70;75.30;;;;;;4955927;28;19922;-91
2022/11/17 06:46:39;;;;;;;;;;;13.70;75.30;;;;;;4955952;28;19919;-90
2022/11/17 06:49:06;;;;;;;;;;;13.70;75.30;;;;;;4955935;28;20379;-90
2022/11/17 06:51:32;;;;;;;;;;;13.70;75.30;;;;;;4940074;29;19910;-90
2022/11/17 06:53:58;;;;;;;;;;;13.70;75.40;;;;;;4939966;29;20014;-89
2022/11/17 06:56:23;;;;;;;;;;;13.70;75.40;;;;;;4955984;28;19977;-90
2022/11/17 06:58:49;;;;;;;;;;;13.70;76.00;;;;;;4955707;28;20325;-90
2022/11/17 07:01:15;;;;;;;;;;;13.70;75.30;;;;;;4955738;28;20002;-90
2022/11/17 07:03:41;;;;;;;;;;;13.70;75.30;;;;;;4939879;29;19954;-90
2022/11/17 07:06:08;;;;;;;;;;;13.70;75.30;;;;;;4939870;29;19957;-89
2022/11/17 07:08:34;;;;;;;;;;;13.70;75.40;;;;;;4955578;29;19977;-90
2022/11/17 07:11:01;;;;;;;;;;;13.70;75.40;;;;;;4956682;28;19922;-89
2022/11/17 07:13:26;;;;;;;;;;;13.70;75.40;;;;;;4957046;28;20016;-89
2022/11/17 07:15:52;;;;;;;;;;;13.60;75.30;;;;;;4959420;28;19965;-88
2022/11/17 07:18:18;;;;;;;;;;;13.70;75.40;;;;;;4958439;28;20332;-86
2022/11/17 07:20:45;;;;;;;;;;;13.70;75.40;;;;;;4940427;29;19910;-89
2022/11/17 07:23:13;;;;;;;;;;;13.70;75.40;;;;;;4955614;28;20045;-87
2022/11/17 07:25:39;;;;;;;;;;;13.70;75.30;;;;;;4955930;28;19954;-87
2022/11/17 07:28:05;;;;;;;;;;;13.70;75.30;;;;;;4955304;29;19985;-88
2022/11/17 07:30:30;;;;;;;;;;;13.70;75.30;;;;;;4955339;28;19917;-88
2022/11/17 07:32:57;;;;;;;;;;;13.70;75.30;;;;;;4955503;29;20017;-89
2022/11/17 07:35:22;;;;;;;;;;;13.70;75.40;;;;;;4939438;28;19914;-88
2022/11/17 07:37:48;;;;;;;;;;;13.70;75.30;;;;;;4942958;29;19942;-88
2022/11/17 07:40:14;;;;;;;;;;;13.70;75.30;;;;;;4958617;28;19918;-87
2022/11/17 07:42:40;;;;;;;;;;;13.70;75.30;;;;;;4959594;28;19938;-88
2022/11/17 07:45:06;;;;;;;;;;;13.70;75.30;;;;;;4942783;28;19911;-88
2022/11/17 07:47:32;;;;;;;;;;;13.70;75.40;;;;;;4958850;28;19969;-89
2022/11/17 07:49:57;;;;;;;;;;;13.70;75.40;;;;;;4958876;29;20025;-89
2022/11/17 07:52:23;;;;;;;;;;;13.70;75.30;;;;;;4960372;28;19914;-88
2022/11/17 07:54:49;;;;;;;;;;;13.70;75.30;;;;;;4959693;28;20013;-87
2022/11/17 07:57:14;;;;;;;;;;;13.70;75.30;;;;;;4942378;29;19915;-88
2022/11/17 07:59:40;;;;;;;;;;;13.70;75.30;;;;;;4959533;28;19910;-88
2022/11/17 08:02:07;;;;;;;;;;;13.70;75.30;;;;;;4958706;29;19914;-88
2022/11/17 08:04:33;;;;;;;;;;;13.70;75.40;;;;;;4958965;28;19918;-89
2022/11/17 08:06:58;;;;;;;;;;;13.70;75.40;;;;;;4958259;28;20447;-87
2022/11/17 08:09:24;;;;;;;;;;;13.70;76.00;;;;;;4958817;29;19910;-88
2022/11/17 08:11:50;;;;;;;;;;;13.70;75.30;;;;;;4958347;29;19958;-89
2022/11/17 08:14:16;;;;;;;;;;;13.70;75.30;;;;;;4958736;29;19915;-90
2022/11/17 08:16:42;;;;;;;;;;;13.70;75.30;;;;;;4942860;29;20344;-90
2022/11/17 08:19:09;;;;;;;;;;;13.70;75.30;;;;;;4958272;28;19911;-89
2022/11/17 08:21:35;;;;;;;;;;;13.70;75.30;;;;;;4942209;29;19910;-89
2022/11/17 08:24:00;;;;;;;;;;;13.70;75.30;;;;;;4957912;28;19910;-89
2022/11/17 08:26:26;;;;;;;;;;;13.70;75.30;;;;;;4958389;29;20296;-89
2022/11/17 08:28:52;;;;;;;;;;;13.70;75.30;;;;;;4958909;28;20145;-89
2022/11/17 08:31:17;;;;;;;;;;;13.70;75.30;;;;;;4926544;29;19957;-89
2022/11/17 08:33:43;;;;;;;;;;;13.70;75.30;;;;;;4957942;29;20363;-89
2022/11/17 08:36:09;;;;;;;;;;;13.70;75.30;;;;;;4958415;28;20267;-89
2022/11/17 08:38:34;;;;;;;;;;;13.70;75.30;;;;;;4958782;28;19910;-89
2022/11/17 08:41:01;;;;;;;;;;;13.70;75.30;;;;;;4957965;29;20282;-88
2022/11/17 08:43:27;;;;;;;;;;;13.70;75.30;;;;;;4958832;28;19917;-88
2022/11/17 08:45:53;;;;;;;;;;;13.70;75.30;;;;;;4958615;28;20005;-86
2022/11/17 08:48:19;;;;;;;;;;;13.80;75.30;;;;;;4957098;28;19925;-88
2022/11/17 08:50:44;;;;;;;;;;;13.70;75.30;;;;;;4958084;29;19920;-89
2022/11/17 08:53:17;;;;;;;;;;;13.70;75.30;;;;;;4942035;29;20300;-88
2022/11/17 08:55:43;;;;;;;;;;;13.70;75.30;;;;;;4958914;28;19922;-88
2022/11/17 08:58:11;;;;;;;;;;;13.70;75.30;;;;;;4958560;28;19946;-88
2022/11/17 09:00:37;;;;;;;;;;;13.80;75.30;;;;;;4957563;28;19993;-89
2022/11/17 09:03:06;;;;;;;;;;;13.70;75.30;;;;;;4958289;28;20004;-85
2022/11/17 09:05:34;;;;;;;;;;;13.80;75.30;;;;;;4958139;29;19914;-91
2022/11/17 09:07:59;;;;;;;;;;;13.70;75.30;;;;;;4957977;28;19941;-91
2022/11/17 09:10:25;;;;;;;;;;;13.70;75.20;;;;;;4958562;29;19919;-91
2022/11/17 09:12:54;;;;;;;;;;;13.80;75.30;;;;;;4958013;28;19929;-89
2022/11/17 09:15:23;;;;;;;;;;;13.80;75.30;;;;;;4959970;28;19922;-92
2022/11/17 09:17:49;;;;;;;;;;;13.80;75.30;;;;;;4958204;28;19993;-90
2022/11/17 09:20:15;;;;;;;;;;;13.80;76.00;;;;;;4957660;28;19919;-93
2022/11/17 09:22:41;;;;;;;;;;;13.80;75.30;;;;;;4927995;29;20320;-94
2022/11/17 09:25:07;;;;;;;;;;;13.80;75.30;;;;;;4941522;29;19974;-86
2022/11/17 09:27:35;;;;;;;;;;;13.80;75.30;;;;;;4957006;29;19922;-87
2022/11/17 09:30:01;;;;;;;;;;;13.70;75.30;;;;;;4959205;28;19918;-91
2022/11/17 09:32:27;;;;;;;;;;;13.70;75.20;;;;;;4960043;28;19952;-85
2022/11/17 09:34:52;;;;;;;;;;;13.80;75.30;;;;;;4941093;29;20406;-86
2022/11/17 09:37:19;;;;;;;;;;;13.80;75.30;;;;;;4959652;28;19918;-86
2022/11/17 09:39:45;;;;;;;;;;;13.80;75.30;;;;;;4943411;29;19915;-87
2022/11/17 09:42:15;;;;;;;;;;;13.80;75.30;;;;;;4968196;28;19917;-92
2022/11/17 09:44:42;;;;;;;;;;;13.80;75.30;;;;;;4945752;29;20029;-90
2022/11/17 09:47:23;;;;;;;;;;;13.80;75.30;;;;;;4958324;29;19922;-91
2022/11/17 09:50:01;;;;;;;;;;;13.80;75.30;;;;;;4961867;29;19921;-95
2022/11/17 09:52:27;;;;;;;;;;;13.80;75.30;;;;;;4953431;28;19915;-96
2022/11/17 09:55:12;;;;;;;;;;;13.80;75.30;;;;;;4958535;28;19962;-91
2022/11/17 09:57:42;;;;;;;;;;;13.80;75.30;;;;;;4957053;28;19918;-91
2022/11/17 10:00:11;;;;;;;;;;;13.80;75.30;;;;;;4957289;28;19914;-91
2022/11/17 10:02:37;;;;;;;;;;;13.80;75.30;;;;;;4956780;29;19914;-85
2022/11/17 10:05:03;;;;;;;;;;;13.80;75.30;;;;;;4955604;28;19915;-83
2022/11/17 10:07:30;;;;;;;;;;;13.80;75.30;;;;;;4956891;29;19922;-86
2022/11/17 10:09:57;;;;;;;;;;;13.80;75.30;;;;;;4940425;29;20512;-88
2022/11/17 10:12:25;;;;;;;;;;;13.80;75.30;;;;;;4956119;29;20065;-88
2022/11/17 10:14:52;;;;;;;;;;;13.80;75.30;;;;;;4956456;28;19921;-86
2022/11/17 10:17:18;;;;;;;;;;;13.80;75.90;;;;;;4955765;28;20271;-84
2022/11/17 10:19:44;;;;;;;;;;;13.80;75.20;;;;;;4956426;28;19914;-87
2022/11/17 10:22:09;;;;;;;;;;;13.80;75.30;;;;;;4955661;29;19910;-86
2022/11/17 10:24:41;;;;;;;;;;;13.80;75.30;;;;;;4955541;28;20279;-84
2022/11/17 10:27:15;;;;;;;;;;;13.80;75.20;;;;;;4939228;29;19929;-86
2022/11/17 10:29:54;;;;;;;;;;;13.90;75.30;;;;;;4955739;29;20009;-89
2022/11/17 10:32:20;;;;;;;;;;;13.90;75.30;;;;;;4955538;29;19910;-87
2022/11/17 10:34:46;;;;;;;;;;;13.80;75.20;;;;;;4924091;29;20267;-88
2022/11/17 10:37:11;;;;;;;;;;;13.80;75.20;;;;;;4955829;29;20367;-86
2022/11/17 10:39:38;;;;;;;;;;;13.80;75.20;;;;;;4955513;28;19911;-85
2022/11/17 10:42:19;;;;;;;;;;;13.90;75.30;;;;;;4956503;28;19914;-85
2022/11/17 10:44:50;;;;;;;;;;;13.80;75.20;;;;;;4956084;28;19985;-84
2022/11/17 10:47:24;;;;;;;;;;;13.90;75.30;;;;;;4955037;29;19920;-83
2022/11/17 10:50:04;;;;;;;;;;;13.90;75.30;;;;;;4955432;28;19970;-85
2022/11/17 10:52:29;;;;;;;;;;;13.90;75.30;;;;;;4956582;28;20013;-85
2022/11/17 10:55:14;;;;;;;;;;;13.90;75.30;;;;;;4954590;28;19958;-87
2022/11/17 10:57:42;;;;;;;;;;;13.90;75.30;;;;;;4956430;28;19945;-85
2022/11/17 11:00:22;;;;;;;;;;;13.90;75.30;;;;;;4956430;28;19910;-92
2022/11/17 11:02:47;;;;;;;;;;;13.90;75.30;;;;;;4956374;28;19914;-87
2022/11/17 11:05:17;;;;;;;;;;;13.90;75.30;;;;;;4955627;28;20342;-88
2022/11/17 11:07:43;;;;;;;;;;;13.90;75.30;;;;;;4956524;28;19927;-86
2022/11/17 11:10:12;;;;;;;;;;;13.90;75.30;;;;;;4955708;28;20293;-85
2022/11/17 11:12:40;;;;;;;;;;;13.90;75.30;;;;;;4959598;28;20025;-83
2022/11/17 11:15:12;;;;;;;;;;;13.90;75.30;;;;;;4958926;29;19921;-84
2022/11/17 11:17:38;;;;;;;;;;;13.90;75.30;;;;;;4958952;29;19911;-88
2022/11/17 11:20:11;;;;;;;;;;;13.90;75.20;;;;;;4942737;28;19917;-84
2022/11/17 11:22:41;;;;;;;;;;;13.90;75.90;;;;;;4943242;29;20268;-87
2022/11/17 11:25:12;;;;;;;;;;;13.90;75.30;;;;;;4959650;28;19956;-84
2022/11/17 11:27:44;;;;;;;;;;;13.90;75.30;;;;;;4943183;29;19926;-85
2022/11/17 11:30:11;;;;;;;;;;;13.90;75.30;;;;;;4958658;29;19965;-85
2022/11/17 11:32:47;;;;;;;;;;;13.90;75.30;;;;;;4958589;28;19911;-84
2022/11/17 11:35:31;;;;;;;;;;;13.90;75.30;;;;;;4958832;28;19919;-85
2022/11/17 11:38:03;;;;;;;;;;;13.90;75.30;;;;;;4959223;29;20386;-84
2022/11/17 11:40:34;;;;;;;;;;;13.90;75.30;;;;;;4958031;28;19919;-83
2022/11/17 11:43:23;;;;;;;;;;;13.90;75.30;;;;;;4959086;28;19914;-86
2022/11/17 11:45:54;;;;;;;;;;;13.90;75.30;;;;;;4958733;28;20010;-82
2022/11/17 11:48:23;;;;;;;;;;;13.90;75.30;;;;;;4957884;29;19922;-85
2022/11/17 11:51:15;;;;;;;;;;;13.90;75.30;;;;;;4957981;28;19911;-84
2022/11/17 11:53:41;;;;;;;;;;;13.90;75.30;;;;;;4940373;29;19910;-83
2022/11/17 11:56:07;;;;;;;;;;;13.90;75.20;;;;;;4958074;29;19918;-85
2022/11/17 11:58:33;;;;;;;;;;;13.90;75.20;;;;;;4958871;28;20378;-84
2022/11/17 12:01:04;;;;;;;;;;;14.00;75.30;;;;;;4958537;29;19917;-89
2022/11/17 12:03:33;;;;;;;;;;;13.90;75.20;;;;;;4958666;28;19914;-88
2022/11/17 12:09:02;;;;;;;;;;;14.00;75.30;;;;;;4958930;29;20348;-86
2022/11/17 12:14:16;;;;;;;;;;;14.00;75.30;;;;;;4958087;29;19926;-85
2022/11/17 12:16:43;;;;;;;;;;;14.00;75.30;;;;;;4958154;29;19915;-89
2022/11/17 12:19:27;;;;;;;;;;;14.00;75.30;;;;;;4943127;29;19919;-88
2022/11/17 12:21:54;;;;;;;;;;;14.00;75.30;;;;;;4959311;28;19925;-88
2022/11/17 12:24:25;;;;;;;;;;;14.00;75.20;;;;;;4959681;28;19914;-88
2022/11/17 12:26:51;;;;;;;;;;;14.00;75.30;;;;;;4942422;29;19921;-89
2022/11/17 12:29:20;;;;;;;;;;;14.00;75.90;;;;;;4926269;29;20379;-86
2022/11/17 12:31:46;;;;;;;;;;;14.00;75.20;;;;;;4959065;28;19914;-87
2022/11/17 12:34:23;;;;;;;;;;;14.00;75.20;;;;;;4957718;29;19918;-86
2022/11/17 12:37:05;;;;;;;;;;;14.00;75.20;;;;;;4958172;29;19946;-87
2022/11/17 12:39:50;;;;;;;;;;;14.00;75.20;;;;;;4958020;28;19921;-85
2022/11/17 12:42:15;;;;;;;;;;;14.00;75.20;;;;;;4958095;29;19958;-86
2022/11/17 12:44:44;;;;;;;;;;;14.00;75.20;;;;;;4957937;28;19911;-87
2022/11/17 12:47:17;;;;;;;;;;;14.00;75.20;;;;;;4958996;28;19923;-87
2022/11/17 12:50:01;;;;;;;;;;;14.00;75.20;;;;;;4957950;28;19922;-89
2022/11/17 12:52:30;;;;;;;;;;;14.10;75.30;;;;;;4957857;29;19915;-87
2022/11/17 12:55:10;;;;;;;;;;;14.10;75.20;;;;;;4958066;29;19911;-86
2022/11/17 12:57:36;;;;;;;;;;;14.10;75.20;;;;;;4957888;29;20009;-86
2022/11/17 13:00:08;;;;;;;;;;;14.10;75.20;;;;;;4958042;28;19964;-86
2022/11/17 13:02:51;;;;;;;;;;;14.00;75.20;;;;;;4958296;28;19915;-86
2022/11/17 13:05:17;;;;;;;;;;;14.10;75.20;;;;;;4957807;29;19921;-87
2022/11/17 13:07:43;;;;;;;;;;;14.10;75.20;;;;;;4957235;28;19922;-87
2022/11/17 13:10:22;;;;;;;;;;;14.10;75.20;;;;;;4957462;29;19914;-87
2022/11/17 13:12:47;;;;;;;;;;;14.10;75.20;;;;;;4957823;28;19914;-87
2022/11/17 13:15:21;;;;;;;;;;;14.10;75.20;;;;;;4958725;28;19923;-86
2022/11/17 13:17:48;;;;;;;;;;;14.10;75.20;;;;;;4957365;28;19921;-87
2022/11/17 13:20:24;;;;;;;;;;;14.10;75.10;;;;;;4941448;28;20351;-87
2022/11/17 13:23:05;;;;;;;;;;;14.10;75.10;;;;;;4941533;29;20351;-87
2022/11/17 13:25:31;;;;;;;;;;;14.10;75.20;;;;;;4942017;29;20026;-87
2022/11/17 13:27:57;;;;;;;;;;;14.10;75.10;;;;;;4956858;29;19918;-87
2022/11/17 13:30:27;;;;;;;;;;;14.10;75.70;;;;;;4956784;28;19969;-85
2022/11/17 13:32:54;;;;;;;;;;;14.10;75.10;;;;;;4940659;29;20284;-89
2022/11/17 13:35:30;;;;;;;;;;;14.10;75.10;;;;;;4924479;29;19915;-88
2022/11/17 13:38:01;;;;;;;;;;;14.10;75.10;;;;;;4958196;28;19962;-88
2022/11/17 13:40:27;;;;;;;;;;;14.10;75.10;;;;;;4956631;28;19915;-88
2022/11/17 13:42:53;;;;;;;;;;;14.10;75.10;;;;;;4941337;29;20372;-87
2022/11/17 13:45:19;;;;;;;;;;;14.10;75.10;;;;;;4940962;29;19921;-87
2022/11/17 13:47:46;;;;;;;;;;;14.10;75.10;;;;;;4940542;29;19922;-87
2022/11/17 13:50:22;;;;;;;;;;;14.10;75.10;;;;;;4956894;29;19911;-86
2022/11/17 13:52:55;;;;;;;;;;;14.10;75.10;;;;;;4941161;29;20363;-87
2022/11/17 13:55:21;;;;;;;;;;;14.10;75.10;;;;;;4957843;28;19915;-89
2022/11/17 13:57:55;;;;;;;;;;;14.10;75.10;;;;;;4957322;29;19911;-88
2022/11/17 14:00:21;;;;;;;;;;;14.10;75.10;;;;;;4946459;29;19949;-87
2022/11/17 14:02:59;;;;;;;;;;;14.10;75.10;;;;;;4971164;29;19911;-90
2022/11/17 14:05:29;;;;;;;;;;;14.10;75.10;;;;;;4975557;29;19915;-88
2022/11/17 14:07:56;;;;;;;;;;;14.10;75.10;;;;;;4956942;28;19933;-86
2022/11/17 14:10:21;;;;;;;;;;;14.10;75.10;;;;;;4956100;29;20451;-87
2022/11/17 14:12:48;;;;;;;;;;;14.10;75.10;;;;;;4957737;28;19910;-88
2022/11/17 14:15:21;;;;;;;;;;;14.10;75.10;;;;;;4956469;28;19929;-87
2022/11/17 14:17:49;;;;;;;;;;;14.10;75.10;;;;;;4957839;28;19914;-88
2022/11/17 14:20:19;;;;;;;;;;;14.10;75.10;;;;;;4940375;29;19918;-87
2022/11/17 14:23:07;;;;;;;;;;;14.10;75.10;;;;;;4940304;29;20389;-88
2022/11/17 14:25:34;;;;;;;;;;;14.10;75.10;;;;;;4955922;28;19922;-88
2022/11/17 14:28:00;;;;;;;;;;;14.10;75.10;;;;;;4940132;29;20419;-89
2022/11/17 14:30:26;;;;;;;;;;;14.10;75.10;;;;;;4956055;29;20355;-88
2022/11/17 14:32:51;;;;;;;;;;;14.10;75.10;;;;;;4956037;29;19965;-88
2022/11/17 14:35:17;;;;;;;;;;;14.10;75.10;;;;;;4955583;29;19911;-88
2022/11/17 14:37:43;;;;;;;;;;;14.10;75.10;;;;;;4940132;29;19918;-88
2022/11/17 14:40:12;;;;;;;;;;;14.10;75.10;;;;;;4939676;29;20009;-87
2022/11/17 14:42:40;;;;;;;;;;;14.10;75.10;;;;;;4939918;29;19914;-86
2022/11/17 14:45:06;;;;;;;;;;;14.10;75.10;;;;;;4955425;28;19911;-86
2022/11/17 14:47:32;;;;;;;;;;;14.10;75.10;;;;;;4956320;28;19923;-92
2022/11/17 14:49:58;;;;;;;;;;;14.10;75.10;;;;;;4939903;29;19917;-86
2022/11/17 14:52:23;;;;;;;;;;;14.10;75.10;;;;;;4924241;29;20011;-86
2022/11/17 14:54:49;;;;;;;;;;;14.10;75.10;;;;;;4955652;28;19917;-87